Terminal Aerodrome Forecast
Issued by NWS

Home | Current Version | Previous Version | Graphics & Text | Print | Product List | Glossary On
Versions: 1 2 3 4 5 6 7 8 9 10 11 12
000
FTUS43 KTOP 251100
TAFMHK
TAF
KMHK 251132Z 2512/2612 21005KT P6SM SCT200
     FM251600 22010KT P6SM FEW070 BKN100
     FM252200 33020G28KT P6SM VCSH SCT027 BKN050
     FM260000 36025G32KT 5SM -RASN OVC025
     FM260400 02017G26KT P6SM OVC020=

USA.gov is the U.S. government's official web portal to all federal, state and local government web resources and services.